Time;durP1;ratioP1;P1;durP2;ratioP2;P2;SDS_P1;SDS_P2;PMS_P1;PMS_P2;Temp;Humidity;BMP_temperature;BMP_pressure;BME280_temperature;BME280_humidity;BME280_pressure;Samples;Min_cycle;Max_cycle;Signal;HPM_P1;HPM_P2
2023/03/30 00:00:31;;;;;;;0.50;0.50;;;;;;;12.90;57.95;96553.94;29395;260;63013;-58
2023/03/30 00:01:10;;;;;;;0.47;0.47;;;;;;;12.92;57.58;96562.59;29395;208;63004;-58
2023/03/30 00:01:41;;;;;;;0.40;0.40;;;;;;;12.89;57.52;96563.22;29395;223;63016;-57
2023/03/30 00:02:17;;;;;;;0.50;0.50;;;;;;;12.88;57.70;96562.44;29395;211;63004;-57
2023/03/30 00:02:52;;;;;;;0.50;0.50;;;;;;;12.91;57.61;96561.00;29394;237;64013;-57
2023/03/30 00:03:25;;;;;;;0.40;0.40;;;;;;;12.92;57.94;96559.88;29395;234;63005;-58
2023/03/30 00:03:57;;;;;;;0.50;0.50;;;;;;;12.90;58.46;96568.34;29395;219;63009;-59
2023/03/30 00:04:33;;;;;;;0.40;0.40;;;;;;;12.90;58.20;96565.63;29395;211;63005;-63
2023/03/30 00:05:05;;;;;;;0.50;0.50;;;;;;;12.88;57.79;96565.16;29395;239;63016;-60
2023/03/30 00:05:38;;;;;;;0.50;0.50;;;;;;;12.86;57.86;96569.31;29394;232;64009;-60
2023/03/30 00:06:13;;;;;;;0.50;0.50;;;;;;;12.87;58.12;96573.63;29395;206;63017;-57
2023/03/30 00:06:44;;;;;;;0.50;0.50;;;;;;;12.87;57.80;96576.34;29395;290;63004;-57
2023/03/30 00:07:18;;;;;;;0.50;0.50;;;;;;;12.86;58.15;96570.09;29395;363;63009;-57
2023/03/30 00:07:50;;;;;;;0.77;0.77;;;;;;;12.87;57.76;96569.00;29394;215;64004;-57
2023/03/30 00:08:26;;;;;;;0.50;0.50;;;;;;;12.89;58.23;96574.13;29395;238;63009;-57
2023/03/30 00:08:59;;;;;;;0.40;0.40;;;;;;;12.90;58.04;96571.09;29394;196;64008;-57
2023/03/30 00:09:32;;;;;;;0.50;0.50;;;;;;;12.88;58.15;96570.59;29395;218;63008;-57
2023/03/30 00:10:05;;;;;;;0.40;0.40;;;;;;;12.87;58.18;96565.47;29394;240;64008;-59
2023/03/30 00:10:37;;;;;;;0.50;0.50;;;;;;;12.85;58.25;96567.69;29395;230;63008;-57
2023/03/30 00:11:12;;;;;;;0.43;0.43;;;;;;;12.86;57.94;96574.75;29395;197;63005;-57
2023/03/30 00:11:44;;;;;;;0.43;0.43;;;;;;;12.91;58.30;96566.44;29395;210;63020;-57
2023/03/30 00:12:19;;;;;;;0.40;0.40;;;;;;;12.96;57.96;96569.03;29394;208;64009;-58
2023/03/30 00:12:51;;;;;;;0.50;0.50;;;;;;;12.94;57.99;96566.62;29395;228;63009;-57
2023/03/30 00:13:27;;;;;;;0.40;0.40;;;;;;;12.93;57.82;96565.00;29395;261;63005;-57
2023/03/30 00:14:00;;;;;;;3.22;1.30;;;;;;;12.91;58.14;96566.44;29395;199;63009;-58
2023/03/30 00:14:36;;;;;;;0.40;0.40;;;;;;;12.90;58.21;96567.56;29394;220;64009;-58
2023/03/30 00:15:11;;;;;;;0.50;0.50;;;;;;;12.94;57.99;96571.25;29395;197;63009;-72
2023/03/30 00:15:42;;;;;;;0.40;0.40;;;;;;;12.96;58.01;96563.56;29395;217;63004;-57
2023/03/30 00:16:13;;;;;;;0.40;0.40;;;;;;;12.95;57.99;96572.88;29395;260;63009;-57
2023/03/30 00:16:45;;;;;;;0.50;0.50;;;;;;;12.93;58.03;96567.72;29395;199;63004;-57
2023/03/30 00:17:16;;;;;;;0.50;0.50;;;;;;;12.92;57.94;96568.84;29394;205;64013;-58
2023/03/30 00:17:49;;;;;;;0.40;0.40;;;;;;;12.92;58.45;96557.97;29395;237;63005;-58
2023/03/30 00:18:21;;;;;;;0.50;0.50;;;;;;;12.92;58.13;96559.88;29395;237;63009;-57
2023/03/30 00:18:52;;;;;;;0.40;0.40;;;;;;;12.92;58.07;96563.41;29395;216;63005;-57
2023/03/30 00:19:25;;;;;;;0.43;0.43;;;;;;;12.96;58.06;96558.13;29395;209;63009;-58
2023/03/30 00:19:56;;;;;;;0.40;0.40;;;;;;;12.97;57.96;96554.28;29395;228;63005;-57
2023/03/30 00:20:27;;;;;;;0.40;0.40;;;;;;;12.97;57.93;96554.28;29395;235;63009;-68
2023/03/30 00:21:01;;;;;;;0.40;0.40;;;;;;;12.95;58.32;96553.81;29395;268;63005;-57
2023/03/30 00:21:32;;;;;;;0.40;0.40;;;;;;;12.98;58.44;96550.44;29394;214;64013;-58
2023/03/30 00:22:05;;;;;;;0.40;0.40;;;;;;;12.98;58.20;96545.00;29395;211;63004;-58
2023/03/30 00:22:38;;;;;;;0.40;0.40;;;;;;;12.96;58.34;96544.50;29395;229;63009;-57
2023/03/30 00:23:12;;;;;;;0.40;0.40;;;;;;;12.94;58.17;96550.28;29395;244;63004;-69
2023/03/30 00:23:46;;;;;;;0.50;0.50;;;;;;;12.91;58.19;96548.19;29395;202;63009;-57
2023/03/30 00:24:17;;;;;;;0.50;0.50;;;;;;;12.90;58.56;96548.50;29395;197;63004;-57
2023/03/30 00:24:52;;;;;;;0.40;0.40;;;;;;;12.89;58.88;96555.06;29395;310;63008;-57
2023/03/30 00:25:23;;;;;;;0.50;0.50;;;;;;;12.89;58.71;96552.34;29395;271;63005;-58
2023/03/30 00:25:55;;;;;;;0.40;0.40;;;;;;;12.89;58.93;96555.06;29394;213;64014;-57
2023/03/30 00:26:26;;;;;;;0.50;0.50;;;;;;;12.90;58.76;96556.66;29395;202;63005;-57
2023/03/30 00:26:58;;;;;;;0.40;0.40;;;;;;;12.92;58.91;96548.97;29394;321;64013;-58
2023/03/30 00:27:30;;;;;;;1.45;1.45;;;;;;;12.91;59.15;96550.91;29395;210;63012;-58
2023/03/30 00:28:01;;;;;;;0.40;0.40;;;;;;;12.90;59.12;96549.28;29395;243;63009;-57
2023/03/30 00:28:33;;;;;;;0.40;0.40;;;;;;;12.88;58.89;96559.69;29395;218;63005;-56
2023/03/30 00:29:05;;;;;;;0.50;0.50;;;;;;;12.86;59.72;96553.78;29395;218;63023;-57
2023/03/30 00:29:36;;;;;;;0.43;0.43;;;;;;;12.86;59.30;96547.53;29395;255;63004;-59
2023/03/30 00:30:11;;;;;;;0.50;0.50;;;;;;;12.84;59.39;96550.56;29395;247;63009;-66
2023/03/30 00:30:42;;;;;;;0.50;0.50;;;;;;;12.83;59.11;96550.88;29394;241;64009;-57
2023/03/30 00:31:14;;;;;;;0.40;0.40;;;;;;;12.84;59.24;96555.19;29394;371;64013;-57
2023/03/30 00:31:45;;;;;;;0.47;0.47;;;;;;;12.85;59.35;96551.34;29395;212;63004;-57
2023/03/30 00:32:16;;;;;;;2.60;2.50;;;;;;;12.85;59.58;96551.34;29395;199;63008;-58
2023/03/30 00:32:47;;;;;;;0.50;0.50;;;;;;;12.84;59.55;96556.00;29395;210;63005;-59
2023/03/30 00:33:19;;;;;;;0.50;0.50;;;;;;;12.84;59.76;96550.56;29395;221;63009;-60
2023/03/30 00:33:51;;;;;;;0.50;0.50;;;;;;;12.86;59.55;96552.97;29395;246;63015;-61
2023/03/30 00:34:22;;;;;;;0.50;0.50;;;;;;;12.86;59.44;96552.97;29394;205;64013;-58
2023/03/30 00:34:53;;;;;;;0.40;0.40;;;;;;;12.85;59.41;96554.09;29395;206;63005;-66
2023/03/30 00:35:25;;;;;;;0.45;0.45;;;;;;;12.83;59.75;96553.59;29395;245;63009;-59
2023/03/30 00:35:58;;;;;;;0.50;0.50;;;;;;;12.84;59.81;96555.19;29395;263;63005;-57
2023/03/30 00:36:29;;;;;;;0.40;0.40;;;;;;;12.86;59.52;96547.53;29395;208;63009;-68
2023/03/30 00:37:02;;;;;;;0.40;0.40;;;;;;;12.89;59.78;96553.12;29395;224;63004;-66
2023/03/30 00:37:36;;;;;;;0.40;0.40;;;;;;;12.90;59.73;96548.50;29395;218;63009;-57
2023/03/30 00:38:07;;;;;;;0.40;0.40;;;;;;;12.89;59.77;96555.06;29395;218;63016;-57
2023/03/30 00:38:39;;;;;;;0.40;0.40;;;;;;;12.89;59.68;96552.34;29395;199;63009;-57
2023/03/30 00:39:10;;;;;;;0.40;0.40;;;;;;;12.87;59.93;96549.13;29394;229;64008;-57
2023/03/30 00:39:43;;;;;;;0.50;0.50;;;;;;;12.86;59.77;96544.78;29395;198;63008;-58
2023/03/30 00:40:19;;;;;;;0.40;0.40;;;;;;;12.88;59.72;96545.28;29395;202;63005;-66
2023/03/30 00:40:58;;;;;;;0.40;0.40;;;;;;;12.89;59.51;96542.25;29394;202;64014;-59
2023/03/30 00:41:30;;;;;;;0.40;0.40;;;;;;;12.90;59.84;96543.03;29394;204;64009;-58
2023/03/30 00:42:02;;;;;;;0.40;0.40;;;;;;;12.92;59.47;96540.81;29394;215;64005;-57
2023/03/30 00:42:35;;;;;;;0.40;0.40;;;;;;;12.90;59.42;96543.03;29395;245;63005;-67
2023/03/30 00:43:13;;;;;;;0.50;0.50;;;;;;;12.91;59.93;96545.47;29395;261;63009;-62
2023/03/30 00:43:55;;;;;;;0.40;0.40;;;;;;;12.92;59.84;96549.78;29394;220;64009;-58
2023/03/30 00:45:03;;;;;;;0.40;0.40;;;;;;;12.91;59.70;96544.66;29395;204;63016;-58
2023/03/30 00:45:35;;;;;;;0.40;0.40;;;;;;;12.89;59.63;96536.00;29394;237;64013;-58
2023/03/30 00:46:07;;;;;;;0.50;0.50;;;;;;;12.90;59.98;96543.03;29395;235;63004;-58
2023/03/30 00:46:38;;;;;;;0.40;0.40;;;;;;;12.94;59.81;96538.59;29395;197;63009;-59
2023/03/30 00:47:10;;;;;;;0.50;0.50;;;;;;;12.93;59.91;96539.69;29395;206;63004;-63
2023/03/30 00:47:49;;;;;;;0.40;0.40;;;;;;;12.94;59.61;96538.59;29395;212;63009;-65
2023/03/30 00:48:40;;;;;;;0.50;0.50;;;;;;;12.95;59.84;96523.84;29395;252;63005;-66
2023/03/30 00:49:12;;;;;;;0.40;0.40;;;;;;;12.97;59.84;96516.97;29417;231;63009;-58
2023/03/30 00:49:44;;;;;;;0.40;0.40;;;;;;;12.96;60.03;96520.00;29395;210;63008;-65
2023/03/30 00:50:20;;;;;;;0.47;0.47;;;;;;;12.95;59.91;96512.94;29395;213;63009;-60
2023/03/30 00:51:08;;;;;;;0.40;0.40;;;;;;;12.95;59.70;96521.12;29394;247;64009;-59
2023/03/30 00:51:41;;;;;;;0.50;0.50;;;;;;;12.93;59.77;96513.28;29395;252;63026;-59
2023/03/30 00:52:18;;;;;;;0.50;0.50;;;;;;;12.94;60.12;96512.16;29395;223;63004;-66
2023/03/30 00:52:55;;;;;;;0.40;0.40;;;;;;;12.91;60.38;96525.59;29395;222;63009;-68
2023/03/30 00:53:32;;;;;;;0.50;0.50;;;;;;;12.93;60.34;96521.44;29395;222;63008;-62
2023/03/30 00:54:11;;;;;;;0.50;0.50;;;;;;;12.94;60.06;96519.53;29395;249;63009;-58
2023/03/30 00:54:42;;;;;;;0.50;0.50;;;;;;;12.93;60.26;96512.47;29395;209;63004;-58
2023/03/30 00:55:14;;;;;;;0.50;0.50;;;;;;;12.96;60.04;96520.00;29395;232;63009;-58
2023/03/30 00:55:47;;;;;;;0.50;0.50;;;;;;;12.97;60.08;96521.59;29394;247;64009;-60
2023/03/30 00:56:23;;;;;;;0.40;0.40;;;;;;;12.96;59.93;96514.56;29395;207;63013;-65
2023/03/30 00:56:55;;;;;;;0.50;0.50;;;;;;;12.95;60.16;96511.03;29395;197;63005;-66
2023/03/30 00:57:27;;;;;;;0.50;0.50;;;;;;;12.96;60.37;96514.56;29395;215;63009;-58
2023/03/30 00:58:03;;;;;;;0.43;0.43;;;;;;;12.94;60.22;96512.16;29394;207;64009;-66
2023/03/30 00:58:39;;;;;;;0.43;0.43;;;;;;;12.92;60.16;96513.59;29395;216;63009;-66
2023/03/30 00:59:11;;;;;;;0.40;0.40;;;;;;;12.88;60.48;96507.16;29394;229;64005;-58
2023/03/30 00:59:43;;;;;;;0.50;0.50;;;;;;;12.87;60.19;96509.09;29395;205;63009;-58
2023/03/30 01:00:15;;;;;;;0.40;0.40;;;;;;;12.86;60.75;96510.19;29395;262;63004;-58
2023/03/30 01:00:47;;;;;;;0.40;0.40;;;;;;;12.87;60.52;96511.81;29395;210;63009;-57
2023/03/30 01:01:27;;;;;;;0.50;0.50;;;;;;;12.84;60.80;96523.31;29395;210;63004;-66
2023/03/30 01:02:00;;;;;;;0.40;0.40;;;;;;;12.81;60.87;96515.00;29395;234;63008;-58
2023/03/30 01:02:36;;;;;;;0.50;0.50;;;;;;;12.82;61.00;96519.34;29395;234;63004;-60
2023/03/30 01:03:18;;;;;;;0.50;0.50;;;;;;;12.85;60.95;96521.41;29394;228;64014;-59
2023/03/30 01:03:50;;;;;;;0.50;0.50;;;;;;;12.86;60.85;96506.69;29395;214;63001;-59
2023/03/30 01:04:22;;;;;;;0.43;0.43;;;;;;;12.86;60.65;96523.81;29395;245;63009;-66
2023/03/30 01:04:56;;;;;;;0.40;0.40;;;;;;;12.88;61.18;96512.59;29395;224;63000;-58
2023/03/30 01:05:29;;;;;;;0.62;0.62;;;;;;;12.86;61.00;96512.13;29394;222;64013;-67
2023/03/30 01:06:04;;;;;;;0.45;0.45;;;;;;;12.85;61.06;96507.78;29395;217;63005;-69
2023/03/30 01:06:38;;;;;;;0.47;0.47;;;;;;;12.86;60.91;96509.41;29395;198;63009;-66
2023/03/30 01:07:13;;;;;;;0.40;0.40;;;;;;;12.85;61.10;96508.59;29395;260;63004;-60
2023/03/30 01:07:48;;;;;;;0.40;0.40;;;;;;;12.86;61.20;96509.41;29395;211;63009;-57
2023/03/30 01:08:22;;;;;;;0.50;0.50;;;;;;;12.85;61.14;96518.69;29395;220;63016;-66
2023/03/30 01:08:56;;;;;;;0.40;0.40;;;;;;;12.83;61.51;96504.59;29394;199;64013;-57
2023/03/30 01:09:28;;;;;;;0.50;0.50;;;;;;;12.80;62.03;96516.94;29395;221;63004;-57
2023/03/30 01:10:01;;;;;;;0.40;0.40;;;;;;;12.79;61.54;96519.97;29395;298;63008;-58
2023/03/30 01:10:33;;;;;;;0.40;0.40;;;;;;;12.75;61.43;96509.72;29395;222;63005;-68
2023/03/30 01:11:06;;;;;;;0.50;0.50;;;;;;;12.75;61.52;96515.16;29394;261;64014;-58
2023/03/30 01:11:38;;;;;;;0.50;0.50;;;;;;;12.73;61.45;96511.94;29394;213;64009;-66
2023/03/30 01:12:10;;;;;;;0.50;0.50;;;;;;;12.71;61.71;96503.28;29395;217;63019;-67
2023/03/30 01:12:42;;;;;;;0.40;0.40;;;;;;;12.70;61.85;96507.12;29394;243;64005;-67
2023/03/30 01:13:14;;;;;;;0.43;0.43;;;;;;;12.69;61.49;96500.09;29395;215;63009;-68
2023/03/30 01:13:51;;;;;;;0.50;0.50;;;;;;;12.68;62.10;96509.38;29394;196;64009;-68
2023/03/30 01:14:23;;;;;;;0.47;0.47;;;;;;;12.67;61.61;96506.97;29395;219;63009;-66
2023/03/30 01:14:55;;;;;;;0.50;0.50;;;;;;;12.66;61.85;96500.72;29395;215;63004;-68
2023/03/30 01:15:34;;;;;;;0.40;0.40;;;;;;;12.66;61.80;96511.59;29395;241;63009;-68
2023/03/30 01:16:42;;;;;;;0.40;0.40;;;;;;;12.65;62.00;96509.19;29395;236;63004;-69
2023/03/30 01:17:44;;;;;;;0.50;0.50;;;;;;;12.66;61.73;96508.06;29395;202;63008;-57
2023/03/30 01:18:47;;;;;;;0.40;0.40;;;;;;;12.65;62.14;96511.91;29416;226;64009;-67
2023/03/30 01:20:08;;;;;;;0.50;0.50;;;;;;;12.65;61.85;96507.28;29395;197;63009;-57
2023/03/30 01:21:34;;;;;;;0.40;0.40;;;;;;;12.74;62.05;96513.56;29395;230;63005;-67
2023/03/30 01:22:29;;;;;;;0.40;0.40;;;;;;;12.70;62.34;96518.03;29395;218;63009;-57
2023/03/30 01:23:48;;;;;;;0.60;0.60;;;;;;;12.66;61.92;96510.78;29394;282;64009;-58
2023/03/30 01:25:05;;;;;;;0.50;0.50;;;;;;;12.69;62.35;96521.84;29395;247;63008;-59
2023/03/30 01:26:23;;;;;;;0.50;0.50;;;;;;;12.71;62.45;96525.06;29395;237;63005;-65
2023/03/30 01:27:44;;;;;;;0.50;0.50;;;;;;;12.72;62.22;96537.56;29394;235;64013;-62
2023/03/30 01:28:37;;;;;;;0.50;0.50;;;;;;;12.72;62.36;96537.56;29395;267;63005;-69
2023/03/30 01:29:23;;;;;;;0.50;0.50;;;;;;;12.70;62.19;96541.72;29395;315;63009;-57
2023/03/30 01:30:59;;;;;;;0.50;0.50;;;;;;;12.65;62.55;96548.09;29394;203;64009;-65
2023/03/30 01:32:11;;;;;;;0.50;0.50;;;;;;;12.73;63.26;96560.94;29395;198;63008;-69
2023/03/30 01:33:39;;;;;;;0.50;0.50;;;;;;;12.70;63.91;96568.94;29417;567;63009;-68
2023/03/30 01:34:59;;;;;;;0.47;0.47;;;;;;;12.67;64.24;96562.19;29395;246;63005;-62
2023/03/30 01:36:21;;;;;;;0.40;0.40;;;;;;;12.66;64.84;96560.59;29394;258;64013;-66
2023/03/30 01:37:16;;;;;;;0.50;0.50;;;;;;;12.71;64.39;96546.84;29395;235;63011;-61
2023/03/30 01:38:28;;;;;;;0.60;0.60;;;;;;;12.78;65.10;96567.38;29395;226;63017;-64
2023/03/30 01:41:29;;;;;;;0.50;0.50;;;;;;;12.92;65.18;96555.22;29395;406;63009;-67
2023/03/30 01:42:45;;;;;;;0.40;0.40;;;;;;;12.87;66.10;96560.81;29395;213;63005;-58
2023/03/30 01:43:33;;;;;;;1.05;1.05;;;;;;;12.84;65.53;96566.09;29395;433;63009;-69
2023/03/30 01:44:51;;;;;;;0.50;0.50;;;;;;;12.84;65.60;96544.31;29394;330;64009;-70
2023/03/30 01:45:56;;;;;;;0.50;0.50;;;;;;;12.81;66.21;96542.25;29395;224;63009;-71
2023/03/30 01:46:39;;;;;;;0.40;0.40;;;;;;;12.83;66.92;96539.97;29396;469;63004;-66
2023/03/30 01:47:22;;;;;;;2.62;0.95;;;;;;;12.83;67.47;96539.97;29395;202;63009;-68
2023/03/30 01:48:48;;;;;;;0.50;0.50;;;;;;;12.78;67.29;96534.69;29395;236;63017;-58
2023/03/30 01:49:35;;;;;;;0.40;0.40;;;;;;;12.71;68.49;96527.78;29394;197;64013;-68
2023/03/30 01:50:52;;;;;;;0.50;0.50;;;;;;;12.66;69.31;96527.94;29395;202;63005;-69
2023/03/30 01:51:35;;;;;;;0.50;0.50;;;;;;;12.61;68.85;96533.50;29395;332;63009;-66
2023/03/30 01:52:22;;;;;;;0.40;0.40;;;;;;;12.57;69.08;96537.97;29395;268;63004;-58
2023/03/30 01:53:15;;;;;;;0.50;0.50;;;;;;;12.52;69.47;96549.00;29395;254;63009;-59
2023/03/30 01:53:59;;;;;;;0.50;0.50;;;;;;;12.55;69.43;96547.56;29395;263;63004;-68
2023/03/30 01:54:38;;;;;;;0.50;0.50;;;;;;;12.53;69.09;96555.25;29394;223;64013;-65
2023/03/30 01:55:20;;;;;;;0.40;0.40;;;;;;;12.54;69.35;96557.66;29395;216;63005;-65
2023/03/30 01:56:01;;;;;;;0.50;0.50;;;;;;;12.56;69.86;96554.63;29395;207;63009;-69
2023/03/30 01:56:46;;;;;;;0.50;0.50;;;;;;;12.53;69.44;96552.50;29417;227;63005;-64
2023/03/30 01:57:42;;;;;;;0.50;0.50;;;;;;;12.54;70.08;96557.66;29395;265;63009;-66
2023/03/30 01:58:25;;;;;;;0.50;0.50;;;;;;;12.52;69.50;96543.53;29395;261;63004;-66
2023/03/30 01:59:24;;;;;;;0.50;0.50;;;;;;;12.50;69.52;96550.41;29395;249;63004;-68
2023/03/30 02:00:12;;;;;;;0.50;0.50;;;;;;;12.45;69.89;96545.94;29394;330;64009;-59
2023/03/30 02:00:50;;;;;;;0.50;0.50;;;;;;;12.45;70.89;96542.41;29395;262;63008;-70
2023/03/30 02:01:22;;;;;;;0.40;0.40;;;;;;;12.39;71.73;96549.91;29395;243;63005;-58
2023/03/30 02:02:01;;;;;;;0.40;0.40;;;;;;;12.37;71.23;96538.53;29395;236;63009;-71
2023/03/30 02:02:33;;;;;;;0.40;0.40;;;;;;;12.36;70.90;96539.66;29395;248;63010;-59
2023/03/30 02:03:15;;;;;;;0.50;0.50;;;;;;;12.34;71.02;96539.16;29395;211;63009;-69
2023/03/30 02:03:55;;;;;;;0.45;0.45;;;;;;;12.30;70.51;96538.16;29395;233;63005;-69
2023/03/30 02:04:30;;;;;;;0.50;0.50;;;;;;;12.27;71.54;96533.34;29395;246;63020;-58
2023/03/30 02:05:05;;;;;;;0.50;0.50;;;;;;;12.26;71.04;96535.25;29394;233;64009;-63
2023/03/30 02:05:38;;;;;;;0.50;0.50;;;;;;;12.31;71.87;96531.63;29395;245;63009;-70
2023/03/30 02:06:41;;;;;;;0.50;0.50;;;;;;;12.33;71.21;96534.81;29395;254;63000;-69
2023/03/30 02:07:20;;;;;;;0.47;0.47;;;;;;;12.39;71.87;96541.75;29395;243;63015;-67
2023/03/30 02:07:56;;;;;;;0.50;0.50;;;;;;;12.38;71.39;96527.34;29395;252;63004;-65
2023/03/30 02:08:31;;;;;;;0.40;0.40;;;;;;;12.36;71.35;96523.31;29395;221;63008;-65
2023/03/30 02:09:04;;;;;;;0.50;0.50;;;;;;;12.33;71.44;96535.63;29395;247;63005;-58
2023/03/30 02:09:40;;;;;;;0.50;0.50;;;;;;;12.31;71.37;96531.63;29395;246;63022;-64
2023/03/30 02:10:16;;;;;;;0.50;0.50;;;;;;;12.28;71.20;96537.69;29394;202;64009;-58
2023/03/30 02:10:51;;;;;;;0.50;0.50;;;;;;;12.24;71.37;96536.69;29395;206;63009;-64
2023/03/30 02:11:25;;;;;;;0.40;0.40;;;;;;;12.22;71.27;96533.47;29395;226;63005;-69
2023/03/30 02:11:59;;;;;;;0.40;0.40;;;;;;;12.24;72.17;96533.97;29395;206;63009;-60
2023/03/30 02:12:31;;;;;;;0.40;0.40;;;;;;;12.29;71.88;96520.25;29395;202;63005;-58
2023/03/30 02:13:04;;;;;;;0.50;0.50;;;;;;;12.30;71.91;96530.00;29395;246;63009;-59
2023/03/30 02:13:37;;;;;;;0.50;0.50;;;;;;;12.31;72.08;96537.06;29395;196;63004;-61
2023/03/30 02:14:14;;;;;;;0.50;0.50;;;;;;;12.28;72.28;96532.22;29395;202;63009;-59
2023/03/30 02:14:48;;;;;;;0.50;0.50;;;;;;;12.27;71.77;96533.34;29395;205;63000;-58
2023/03/30 02:15:23;;;;;;;0.50;0.50;;;;;;;12.24;72.59;96547.56;29394;243;64013;-64
2023/03/30 02:15:58;;;;;;;0.43;0.43;;;;;;;12.20;72.70;96541.16;29395;205;63004;-66
2023/03/30 02:16:36;;;;;;;0.40;0.40;;;;;;;12.23;72.86;96537.81;29395;217;63009;-57
2023/03/30 02:17:18;;;;;;;0.50;0.50;;;;;;;12.24;72.24;96534.78;29394;198;64009;-67
2023/03/30 02:17:50;;;;;;;0.40;0.40;;;;;;;12.22;72.78;96536.19;29395;203;63009;-65
2023/03/30 02:18:21;;;;;;;0.50;0.50;;;;;;;12.24;72.18;96542.13;29395;227;63015;-61
2023/03/30 02:18:53;;;;;;;0.40;0.40;;;;;;;12.27;72.56;96546.94;29395;216;63009;-59
2023/03/30 02:19:26;;;;;;;0.50;0.50;;;;;;;12.25;72.75;96543.75;29395;227;63016;-64
2023/03/30 02:20:00;;;;;;;0.50;0.50;;;;;;;12.24;72.75;96542.13;29395;238;63009;-59
2023/03/30 02:20:33;;;;;;;0.50;0.50;;;;;;;12.32;72.05;96546.81;29395;211;63005;-66
2023/03/30 02:21:05;;;;;;;0.40;0.40;;;;;;;12.33;72.62;96545.72;29395;202;63009;-63
2023/03/30 02:21:37;;;;;;;0.50;0.50;;;;;;;12.34;71.77;96550.03;29395;234;63008;-64
2023/03/30 02:22:08;;;;;;;0.40;0.40;;;;;;;12.33;71.72;96532.09;29394;198;64013;-61
2023/03/30 02:22:42;;;;;;;0.50;0.50;;;;;;;12.34;71.85;96539.16;29395;204;63004;-63
2023/03/30 02:23:17;;;;;;;0.50;0.50;;;;;;;12.41;71.47;96542.25;29395;199;63008;-59
2023/03/30 02:23:53;;;;;;;0.50;0.50;;;;;;;12.45;71.25;96543.22;29395;220;63004;-58
2023/03/30 02:24:29;;;;;;;0.82;0.82;;;;;;;12.47;71.44;96540.19;29395;203;63009;-64
2023/03/30 02:25:01;;;;;;;0.40;0.40;;;;;;;12.41;71.20;96543.03;29395;244;63008;-69
2023/03/30 02:25:37;;;;;;;0.50;0.50;;;;;;;12.38;71.33;96553.75;29395;209;63014;-59
2023/03/30 02:26:10;;;;;;;0.85;0.85;;;;;;;12.35;71.16;96548.91;29395;253;63005;-63
2023/03/30 02:26:46;;;;;;;0.50;0.50;;;;;;;12.34;71.90;96558.19;29395;202;63009;-65
2023/03/30 02:27:19;;;;;;;0.50;0.50;;;;;;;12.31;72.13;96558.81;29394;202;64009;-58
2023/03/30 02:27:53;;;;;;;0.50;0.50;;;;;;;12.27;72.31;96550.47;29395;262;63009;-69
2023/03/30 02:28:25;;;;;;;0.50;0.50;;;;;;;12.31;72.14;96565.06;29395;203;63013;-60
2023/03/30 02:28:56;;;;;;;0.68;0.68;;;;;;;12.31;72.38;96556.09;29395;212;63009;-70
2023/03/30 02:29:30;;;;;;;0.40;0.40;;;;;;;12.26;72.69;96557.03;29395;392;63004;-67
2023/03/30 02:30:03;;;;;;;0.47;0.47;;;;;;;12.22;72.78;96555.25;29395;279;63009;-68
2023/03/30 02:30:41;;;;;;;0.60;0.60;;;;;;;12.23;72.34;96557.66;29395;202;63004;-58
2023/03/30 02:31:15;;;;;;;0.40;0.40;;;;;;;12.26;72.32;96556.22;29395;237;63008;-58
2023/03/30 02:31:50;;;;;;;0.50;0.50;;;;;;;12.34;71.88;96548.13;29395;261;63005;-68
2023/03/30 02:32:25;;;;;;;2.35;1.45;;;;;;;12.36;72.00;96551.34;29394;203;64014;-70
2023/03/30 02:32:56;;;;;;;0.40;0.40;;;;;;;12.34;71.81;96547.31;29395;202;63005;-64
2023/03/30 02:33:55;;;;;;;0.50;0.50;;;;;;;12.35;72.02;96549.72;29395;219;63009;-66
2023/03/30 02:35:27;;;;;;;0.50;0.50;;;;;;;12.40;71.28;96567.84;29395;317;63005;-60
2023/03/30 02:36:33;;;;;;;0.50;0.50;;;;;;;12.38;71.40;96559.19;29395;309;63009;-60
2023/03/30 02:37:57;;;;;;;0.50;0.50;;;;;;;12.43;71.20;96550.88;29395;215;63004;-63
2023/03/30 02:38:55;;;;;;;0.60;0.60;;;;;;;12.47;71.05;96551.88;29394;256;64008;-61
2023/03/30 02:40:07;;;;;;;0.50;0.50;;;;;;;12.47;71.33;96551.88;29395;236;63009;-58
2023/03/30 02:41:05;;;;;;;0.50;0.50;;;;;;;12.39;71.48;96556.16;29417;518;63015;-60
2023/03/30 02:42:05;;;;;;;0.50;0.50;;;;;;;12.31;71.55;96559.62;29395;205;63005;-65
2023/03/30 02:43:29;;;;;;;0.50;0.50;;;;;;;12.30;71.76;96558.00;29395;443;63009;-67
2023/03/30 02:44:57;;;;;;;0.50;0.50;;;;;;;12.25;71.79;96555.41;29394;225;64009;-65
2023/03/30 02:46:14;;;;;;;0.50;0.50;;;;;;;12.22;72.16;96555.25;29395;214;63008;-65
2023/03/30 02:47:08;;;;;;;0.50;0.50;;;;;;;12.28;71.74;96554.00;29395;235;63005;-66
2023/03/30 02:48:17;;;;;;;0.50;0.50;;;;;;;12.27;72.10;96553.19;29395;303;63009;-71
2023/03/30 02:49:13;;;;;;;0.50;0.50;;;;;;;12.31;72.16;96550.66;29395;301;63009;-58
2023/03/30 02:50:02;;;;;;;0.50;0.50;;;;;;;12.32;71.70;96552.25;29394;283;64013;-69
2023/03/30 02:51:14;;;;;;;0.50;0.50;;;;;;;12.35;71.95;96554.38;29395;499;63011;-69
2023/03/30 02:52:15;;;;;;;0.40;0.40;;;;;;;12.31;72.24;96548.75;29416;197;64009;-59
2023/03/30 02:53:09;;;;;;;0.50;0.50;;;;;;;12.27;72.13;96552.41;29395;610;63004;-58
2023/03/30 02:54:01;;;;;;;0.50;0.50;;;;;;;12.22;72.59;96549.78;29395;232;63009;-64
2023/03/30 02:54:56;;;;;;;0.50;0.50;;;;;;;12.21;73.14;96548.19;29395;224;63005;-66
2023/03/30 02:55:54;;;;;;;0.50;0.50;;;;;;;12.20;74.10;96546.59;29394;248;64009;-62
2023/03/30 02:57:13;;;;;;;0.40;0.40;;;;;;;12.21;73.83;96543.56;29395;202;63009;-64
2023/03/30 02:58:22;;;;;;;0.43;0.43;;;;;;;12.15;74.07;96539.34;29395;277;63004;-58
2023/03/30 02:59:04;;;;;;;0.50;0.50;;;;;;;12.07;74.92;96540.13;29395;208;63025;-65
2023/03/30 03:00:12;;;;;;;0.50;0.50;;;;;;;12.08;75.12;96539.00;29395;264;63004;-69
2023/03/30 03:01:02;;;;;;;0.40;0.40;;;;;;;12.06;75.40;96541.25;29394;202;64013;-58
2023/03/30 03:01:41;;;;;;;0.50;0.50;;;;;;;12.02;75.35;96529.38;29395;325;63005;-64
2023/03/30 03:02:26;;;;;;;0.50;0.50;;;;;;;11.96;76.21;96525.19;29395;202;63009;-57
2023/03/30 03:03:03;;;;;;;0.50;0.50;;;;;;;11.91;75.84;96528.81;29395;407;63005;-67
2023/03/30 03:03:42;;;;;;;0.40;0.40;;;;;;;11.87;75.84;96533.28;29395;197;63009;-58
2023/03/30 03:04:14;;;;;;;0.50;0.50;;;;;;;11.86;76.62;96537.09;29395;346;63005;-63
2023/03/30 03:04:48;;;;;;;0.50;0.50;;;;;;;11.86;77.47;96531.66;29395;197;63009;-58
2023/03/30 03:05:21;;;;;;;0.50;0.50;;;;;;;11.83;79.21;96537.72;29395;210;63004;-63
2023/03/30 03:05:54;;;;;;;0.40;0.40;;;;;;;11.79;77.98;96525.03;29394;219;64013;-62
2023/03/30 03:06:26;;;;;;;0.50;0.50;;;;;;;11.78;79.15;96521.56;29395;207;63004;-66
2023/03/30 03:07:01;;;;;;;0.50;0.50;;;;;;;11.74;79.62;96518.63;29395;251;63009;-67
2023/03/30 03:07:32;;;;;;;0.50;0.50;;;;;;;11.71;79.46;96510.28;29395;208;63004;-63
2023/03/30 03:08:05;;;;;;;0.50;0.50;;;;;;;11.68;80.37;96513.59;29395;238;63024;-68
2023/03/30 03:08:41;;;;;;;0.50;0.50;;;;;;;11.68;79.57;96513.59;29395;202;63005;-69
2023/03/30 03:09:24;;;;;;;0.50;0.50;;;;;;;11.68;80.71;96519.03;29395;200;63009;-69
2023/03/30 03:09:56;;;;;;;0.40;0.40;;;;;;;11.72;80.93;96520.03;29395;255;63005;-69
2023/03/30 03:10:27;;;;;;;0.50;0.50;;;;;;;11.73;80.95;96511.56;29395;227;63009;-66
2023/03/30 03:10:59;;;;;;;0.50;0.50;;;;;;;11.75;81.44;96503.13;29394;283;64009;-64
2023/03/30 03:11:30;;;;;;;0.50;0.50;;;;;;;11.72;81.43;96501.81;29395;249;63016;-66
2023/03/30 03:12:01;;;;;;;0.40;0.40;;;;;;;11.66;82.80;96502.25;29395;209;63005;-70
2023/03/30 03:12:33;;;;;;;0.40;0.40;;;;;;;11.61;82.20;96497.72;29395;207;63009;-57
2023/03/30 03:13:04;;;;;;;0.40;0.40;;;;;;;11.60;81.93;96506.19;29395;195;63004;-68
2023/03/30 03:13:37;;;;;;;0.47;0.47;;;;;;;11.61;82.29;96495.00;29395;230;63009;-66
2023/03/30 03:14:10;;;;;;;0.40;0.40;;;;;;;11.58;83.53;96487.47;29395;200;63004;-67
2023/03/30 03:14:42;;;;;;;0.50;0.50;;;;;;;11.53;83.86;96489.50;29395;214;63009;-68
2023/03/30 03:15:15;;;;;;;0.43;0.43;;;;;;;11.42;83.95;96480.81;29395;211;63004;-59
2023/03/30 03:15:46;;;;;;;0.43;0.43;;;;;;;11.43;83.42;96485.91;29395;196;63008;-68
2023/03/30 03:16:18;;;;;;;0.40;0.40;;;;;;;11.42;83.16;96488.97;29394;250;64009;-64
2023/03/30 03:16:49;;;;;;;0.50;0.50;;;;;;;11.41;84.22;96474.56;29395;221;63005;-68
2023/03/30 03:17:21;;;;;;;0.50;0.50;;;;;;;11.42;83.78;96483.53;29395;240;63005;-67